sensor_id;sensor_type;location;lat;lon;timestamp;P1;durP1;ratioP1;P2;durP2;ratioP2
24859;SDS011;12936;52.006;4.350;2022-10-31T00:01:37;5.90;;;1.87;;
24859;SDS011;12936;52.006;4.350;2022-10-31T00:04:10;5.60;;;1.60;;
24859;SDS011;12936;52.006;4.350;2022-10-31T00:06:39;5.67;;;1.80;;
24859;SDS011;12936;52.006;4.350;2022-10-31T00:09:09;4.67;;;1.73;;
24859;SDS011;12936;52.006;4.350;2022-10-31T00:11:41;3.77;;;1.60;;
24859;SDS011;12936;52.006;4.350;2022-10-31T00:14:10;2.27;;;1.60;;
24859;SDS011;12936;52.006;4.350;2022-10-31T00:16:41;3.83;;;1.60;;
24859;SDS011;12936;52.006;4.350;2022-10-31T00:19:30;4.90;;;1.73;;
24859;SDS011;12936;52.006;4.350;2022-10-31T00:22:01;2.90;;;1.50;;
24859;SDS011;12936;52.006;4.350;2022-10-31T00:24:30;3.97;;;1.63;;
24859;SDS011;12936;52.006;4.350;2022-10-31T00:26:59;3.03;;;1.67;;
24859;SDS011;12936;52.006;4.350;2022-10-31T00:29:29;3.08;;;2.22;;
24859;SDS011;12936;52.006;4.350;2022-10-31T00:32:02;3.53;;;1.93;;
24859;SDS011;12936;52.006;4.350;2022-10-31T00:34:30;2.55;;;1.95;;
24859;SDS011;12936;52.006;4.350;2022-10-31T00:36:58;2.80;;;2.07;;
24859;SDS011;12936;52.006;4.350;2022-10-31T00:39:31;4.03;;;2.10;;
24859;SDS011;12936;52.006;4.350;2022-10-31T00:42:00;3.33;;;1.70;;
24859;SDS011;12936;52.006;4.350;2022-10-31T00:44:35;3.93;;;1.93;;
24859;SDS011;12936;52.006;4.350;2022-10-31T00:47:05;3.93;;;1.87;;
24859;SDS011;12936;52.006;4.350;2022-10-31T00:49:35;3.30;;;2.30;;
24859;SDS011;12936;52.006;4.350;2022-10-31T00:52:04;4.07;;;2.50;;
24859;SDS011;12936;52.006;4.350;2022-10-31T00:54:34;4.20;;;1.93;;
24859;SDS011;12936;52.006;4.350;2022-10-31T00:57:04;3.67;;;2.30;;
24859;SDS011;12936;52.006;4.350;2022-10-31T00:59:34;3.33;;;2.33;;
24859;SDS011;12936;52.006;4.350;2022-10-31T01:02:07;2.90;;;2.37;;
24859;SDS011;12936;52.006;4.350;2022-10-31T01:04:36;3.60;;;2.07;;
24859;SDS011;12936;52.006;4.350;2022-10-31T01:07:05;3.17;;;2.10;;
24859;SDS011;12936;52.006;4.350;2022-10-31T01:09:37;2.60;;;2.13;;
24859;SDS011;12936;52.006;4.350;2022-10-31T01:12:05;3.60;;;2.40;;
24859;SDS011;12936;52.006;4.350;2022-10-31T01:14:34;4.23;;;2.20;;
24859;SDS011;12936;52.006;4.350;2022-10-31T01:17:03;3.27;;;2.27;;
24859;SDS011;12936;52.006;4.350;2022-10-31T01:19:32;3.60;;;2.07;;
24859;SDS011;12936;52.006;4.350;2022-10-31T01:22:03;3.67;;;2.40;;
24859;SDS011;12936;52.006;4.350;2022-10-31T01:24:37;3.30;;;2.37;;
24859;SDS011;12936;52.006;4.350;2022-10-31T01:27:08;4.13;;;2.40;;
24859;SDS011;12936;52.006;4.350;2022-10-31T01:29:44;4.97;;;2.57;;
24859;SDS011;12936;52.006;4.350;2022-10-31T01:32:12;3.10;;;2.37;;
24859;SDS011;12936;52.006;4.350;2022-10-31T01:34:44;5.40;;;2.50;;
24859;SDS011;12936;52.006;4.350;2022-10-31T01:37:13;4.07;;;2.73;;
24859;SDS011;12936;52.006;4.350;2022-10-31T01:39:43;4.00;;;2.57;;
24859;SDS011;12936;52.006;4.350;2022-10-31T01:42:11;4.57;;;2.40;;
24859;SDS011;12936;52.006;4.350;2022-10-31T01:44:53;3.13;;;2.30;;
24859;SDS011;12936;52.006;4.350;2022-10-31T01:47:48;4.67;;;2.40;;
24859;SDS011;12936;52.006;4.350;2022-10-31T01:50:23;4.70;;;2.63;;
24859;SDS011;12936;52.006;4.350;2022-10-31T01:52:56;5.80;;;2.73;;
24859;SDS011;12936;52.006;4.350;2022-10-31T01:55:29;6.43;;;2.83;;
24859;SDS011;12936;52.006;4.350;2022-10-31T01:58:03;3.93;;;2.57;;
24859;SDS011;12936;52.006;4.350;2022-10-31T02:00:58;4.50;;;3.10;;
24859;SDS011;12936;52.006;4.350;2022-10-31T02:03:33;4.20;;;3.07;;
24859;SDS011;12936;52.006;4.350;2022-10-31T02:06:02;4.63;;;2.80;;
24859;SDS011;12936;52.006;4.350;2022-10-31T02:08:35;3.67;;;2.50;;
24859;SDS011;12936;52.006;4.350;2022-10-31T02:11:08;4.73;;;2.97;;
24859;SDS011;12936;52.006;4.350;2022-10-31T02:13:38;5.20;;;3.10;;
24859;SDS011;12936;52.006;4.350;2022-10-31T02:16:08;3.73;;;3.10;;
24859;SDS011;12936;52.006;4.350;2022-10-31T02:18:39;5.07;;;3.23;;
24859;SDS011;12936;52.006;4.350;2022-10-31T02:21:10;4.47;;;3.27;;
24859;SDS011;12936;52.006;4.350;2022-10-31T02:24:00;4.73;;;3.40;;
24859;SDS011;12936;52.006;4.350;2022-10-31T02:27:11;6.53;;;3.70;;
24859;SDS011;12936;52.006;4.350;2022-10-31T02:30:06;5.13;;;3.43;;
24859;SDS011;12936;52.006;4.350;2022-10-31T02:32:43;4.63;;;2.93;;
24859;SDS011;12936;52.006;4.350;2022-10-31T02:35:23;5.10;;;3.57;;
24859;SDS011;12936;52.006;4.350;2022-10-31T02:38:02;5.27;;;3.73;;
24859;SDS011;12936;52.006;4.350;2022-10-31T02:40:39;6.03;;;3.50;;
24859;SDS011;12936;52.006;4.350;2022-10-31T02:43:18;4.27;;;3.17;;
24859;SDS011;12936;52.006;4.350;2022-10-31T02:45:55;4.33;;;3.13;;
24859;SDS011;12936;52.006;4.350;2022-10-31T02:48:33;6.20;;;3.73;;
24859;SDS011;12936;52.006;4.350;2022-10-31T02:51:06;6.17;;;3.33;;
24859;SDS011;12936;52.006;4.350;2022-10-31T02:53:38;4.80;;;3.50;;
24859;SDS011;12936;52.006;4.350;2022-10-31T02:56:08;5.70;;;3.97;;
24859;SDS011;12936;52.006;4.350;2022-10-31T02:58:47;6.03;;;3.70;;
24859;SDS011;12936;52.006;4.350;2022-10-31T03:07:45;4.63;;;3.83;;
24859;SDS011;12936;52.006;4.350;2022-10-31T03:10:24;7.03;;;4.07;;
24859;SDS011;12936;52.006;4.350;2022-10-31T03:13:03;6.30;;;4.17;;
24859;SDS011;12936;52.006;4.350;2022-10-31T03:15:36;6.13;;;4.63;;
24859;SDS011;12936;52.006;4.350;2022-10-31T03:18:08;5.20;;;4.10;;
24859;SDS011;12936;52.006;4.350;2022-10-31T03:20:42;8.80;;;4.20;;
24859;SDS011;12936;52.006;4.350;2022-10-31T03:23:19;6.77;;;4.17;;
24859;SDS011;12936;52.006;4.350;2022-10-31T03:25:49;8.27;;;3.90;;
24859;SDS011;12936;52.006;4.350;2022-10-31T03:28:22;7.10;;;4.47;;
24859;SDS011;12936;52.006;4.350;2022-10-31T03:30:57;7.93;;;4.30;;
24859;SDS011;12936;52.006;4.350;2022-10-31T03:33:32;5.93;;;3.90;;
24859;SDS011;12936;52.006;4.350;2022-10-31T03:36:07;7.50;;;4.60;;
24859;SDS011;12936;52.006;4.350;2022-10-31T03:38:41;6.63;;;4.77;;
24859;SDS011;12936;52.006;4.350;2022-10-31T03:41:13;7.83;;;5.00;;
24859;SDS011;12936;52.006;4.350;2022-10-31T03:43:46;5.97;;;4.70;;
24859;SDS011;12936;52.006;4.350;2022-10-31T03:46:21;8.83;;;5.30;;
24859;SDS011;12936;52.006;4.350;2022-10-31T03:48:53;6.80;;;4.93;;
24859;SDS011;12936;52.006;4.350;2022-10-31T03:51:25;7.50;;;5.07;;
24859;SDS011;12936;52.006;4.350;2022-10-31T03:54:02;8.87;;;5.30;;
24859;SDS011;12936;52.006;4.350;2022-10-31T03:56:39;7.60;;;5.33;;
24859;SDS011;12936;52.006;4.350;2022-10-31T03:59:13;9.90;;;5.67;;
24859;SDS011;12936;52.006;4.350;2022-10-31T04:01:46;9.93;;;6.10;;
24859;SDS011;12936;52.006;4.350;2022-10-31T04:04:18;10.13;;;6.60;;
24859;SDS011;12936;52.006;4.350;2022-10-31T04:06:47;10.47;;;6.80;;
24859;SDS011;12936;52.006;4.350;2022-10-31T04:09:20;13.73;;;6.57;;
24859;SDS011;12936;52.006;4.350;2022-10-31T04:11:50;12.53;;;7.00;;
24859;SDS011;12936;52.006;4.350;2022-10-31T04:14:21;9.70;;;7.00;;
24859;SDS011;12936;52.006;4.350;2022-10-31T04:16:51;11.77;;;7.57;;
24859;SDS011;12936;52.006;4.350;2022-10-31T04:19:20;12.17;;;6.73;;
24859;SDS011;12936;52.006;4.350;2022-10-31T04:21:48;11.20;;;7.40;;
24859;SDS011;12936;52.006;4.350;2022-10-31T04:24:16;9.47;;;7.20;;
24859;SDS011;12936;52.006;4.350;2022-10-31T04:26:47;10.03;;;7.47;;
24859;SDS011;12936;52.006;4.350;2022-10-31T04:29:16;10.07;;;8.37;;
24859;SDS011;12936;52.006;4.350;2022-10-31T04:31:44;11.37;;;7.83;;
24859;SDS011;12936;52.006;4.350;2022-10-31T04:34:13;12.07;;;7.87;;
24859;SDS011;12936;52.006;4.350;2022-10-31T04:36:41;11.03;;;8.17;;
24859;SDS011;12936;52.006;4.350;2022-10-31T04:39:11;12.67;;;8.47;;
24859;SDS011;12936;52.006;4.350;2022-10-31T04:41:40;12.20;;;7.97;;
24859;SDS011;12936;52.006;4.350;2022-10-31T04:44:12;13.40;;;8.27;;
24859;SDS011;12936;52.006;4.350;2022-10-31T04:46:40;12.10;;;8.33;;
24859;SDS011;12936;52.006;4.350;2022-10-31T04:49:12;13.60;;;8.50;;
24859;SDS011;12936;52.006;4.350;2022-10-31T04:51:41;10.20;;;8.10;;
24859;SDS011;12936;52.006;4.350;2022-10-31T04:54:09;10.73;;;8.13;;
24859;SDS011;12936;52.006;4.350;2022-10-31T04:56:37;12.90;;;8.20;;
24859;SDS011;12936;52.006;4.350;2022-10-31T04:59:05;11.50;;;8.73;;
24859;SDS011;12936;52.006;4.350;2022-10-31T05:01:40;12.83;;;8.10;;
24859;SDS011;12936;52.006;4.350;2022-10-31T05:04:09;14.73;;;8.33;;
24859;SDS011;12936;52.006;4.350;2022-10-31T05:06:39;12.50;;;8.13;;
24859;SDS011;12936;52.006;4.350;2022-10-31T05:09:07;11.50;;;8.27;;
24859;SDS011;12936;52.006;4.350;2022-10-31T05:11:36;13.07;;;8.57;;
24859;SDS011;12936;52.006;4.350;2022-10-31T05:14:04;10.37;;;7.93;;
24859;SDS011;12936;52.006;4.350;2022-10-31T05:16:43;11.10;;;7.80;;
24859;SDS011;12936;52.006;4.350;2022-10-31T05:19:11;11.43;;;7.90;;
24859;SDS011;12936;52.006;4.350;2022-10-31T05:21:39;14.20;;;7.90;;
24859;SDS011;12936;52.006;4.350;2022-10-31T05:24:07;11.93;;;7.67;;
24859;SDS011;12936;52.006;4.350;2022-10-31T05:26:35;15.90;;;8.50;;
24859;SDS011;12936;52.006;4.350;2022-10-31T05:29:03;9.80;;;7.30;;
24859;SDS011;12936;52.006;4.350;2022-10-31T05:31:31;9.43;;;7.90;;
24859;SDS011;12936;52.006;4.350;2022-10-31T05:34:00;12.57;;;8.53;;
24859;SDS011;12936;52.006;4.350;2022-10-31T05:36:28;11.00;;;7.63;;
24859;SDS011;12936;52.006;4.350;2022-10-31T05:38:56;10.80;;;8.07;;
24859;SDS011;12936;52.006;4.350;2022-10-31T05:41:24;11.17;;;8.40;;
24859;SDS011;12936;52.006;4.350;2022-10-31T05:43:52;11.83;;;8.27;;
24859;SDS011;12936;52.006;4.350;2022-10-31T05:46:20;12.27;;;8.23;;
24859;SDS011;12936;52.006;4.350;2022-10-31T05:48:48;12.37;;;8.23;;
24859;SDS011;12936;52.006;4.350;2022-10-31T05:51:18;11.10;;;8.20;;
24859;SDS011;12936;52.006;4.350;2022-10-31T05:53:46;12.57;;;7.73;;
24859;SDS011;12936;52.006;4.350;2022-10-31T05:56:14;13.20;;;8.30;;
24859;SDS011;12936;52.006;4.350;2022-10-31T05:58:42;10.93;;;8.70;;
24859;SDS011;12936;52.006;4.350;2022-10-31T06:01:10;12.80;;;8.50;;
24859;SDS011;12936;52.006;4.350;2022-10-31T06:03:38;18.87;;;8.40;;
24859;SDS011;12936;52.006;4.350;2022-10-31T06:06:07;14.50;;;8.80;;
24859;SDS011;12936;52.006;4.350;2022-10-31T06:08:37;11.90;;;8.30;;
24859;SDS011;12936;52.006;4.350;2022-10-31T06:11:04;13.17;;;8.47;;
24859;SDS011;12936;52.006;4.350;2022-10-31T06:13:32;11.73;;;8.57;;
24859;SDS011;12936;52.006;4.350;2022-10-31T06:16:00;10.67;;;8.13;;
24859;SDS011;12936;52.006;4.350;2022-10-31T06:18:28;15.97;;;8.70;;
24859;SDS011;12936;52.006;4.350;2022-10-31T06:20:56;14.03;;;8.50;;
24859;SDS011;12936;52.006;4.350;2022-10-31T06:23:24;13.07;;;8.60;;
24859;SDS011;12936;52.006;4.350;2022-10-31T06:25:53;10.83;;;8.50;;
24859;SDS011;12936;52.006;4.350;2022-10-31T06:28:22;12.63;;;9.10;;
24859;SDS011;12936;52.006;4.350;2022-10-31T06:30:50;12.80;;;8.80;;
24859;SDS011;12936;52.006;4.350;2022-10-31T06:33:18;12.70;;;8.90;;
24859;SDS011;12936;52.006;4.350;2022-10-31T06:35:46;19.67;;;9.77;;
24859;SDS011;12936;52.006;4.350;2022-10-31T06:38:14;16.07;;;9.87;;
24859;SDS011;12936;52.006;4.350;2022-10-31T06:40:42;15.47;;;9.77;;
24859;SDS011;12936;52.006;4.350;2022-10-31T06:43:12;18.03;;;9.17;;
24859;SDS011;12936;52.006;4.350;2022-10-31T06:45:40;14.93;;;8.97;;
24859;SDS011;12936;52.006;4.350;2022-10-31T06:48:08;15.30;;;9.00;;
24859;SDS011;12936;52.006;4.350;2022-10-31T06:50:43;13.87;;;8.90;;
24859;SDS011;12936;52.006;4.350;2022-10-31T06:53:11;12.33;;;8.90;;
24859;SDS011;12936;52.006;4.350;2022-10-31T06:55:40;15.53;;;8.77;;
24859;SDS011;12936;52.006;4.350;2022-10-31T06:58:09;14.90;;;8.90;;
24859;SDS011;12936;52.006;4.350;2022-10-31T07:00:38;16.90;;;10.20;;
24859;SDS011;12936;52.006;4.350;2022-10-31T07:03:09;15.83;;;9.90;;
24859;SDS011;12936;52.006;4.350;2022-10-31T07:05:39;15.60;;;9.93;;
24859;SDS011;12936;52.006;4.350;2022-10-31T07:08:08;17.27;;;10.57;;
24859;SDS011;12936;52.006;4.350;2022-10-31T07:10:38;14.27;;;9.83;;
24859;SDS011;12936;52.006;4.350;2022-10-31T07:13:09;19.60;;;10.43;;
24859;SDS011;12936;52.006;4.350;2022-10-31T07:15:40;19.87;;;10.40;;
24859;SDS011;12936;52.006;4.350;2022-10-31T07:18:09;15.47;;;10.47;;
24859;SDS011;12936;52.006;4.350;2022-10-31T07:20:38;13.30;;;9.83;;
24859;SDS011;12936;52.006;4.350;2022-10-31T07:23:07;14.83;;;9.93;;
24859;SDS011;12936;52.006;4.350;2022-10-31T07:25:36;16.90;;;10.23;;
24859;SDS011;12936;52.006;4.350;2022-10-31T07:28:04;12.40;;;10.47;;
24859;SDS011;12936;52.006;4.350;2022-10-31T07:30:34;15.47;;;10.47;;
24859;SDS011;12936;52.006;4.350;2022-10-31T07:33:02;18.13;;;10.43;;
24859;SDS011;12936;52.006;4.350;2022-10-31T07:35:30;16.47;;;10.57;;
24859;SDS011;12936;52.006;4.350;2022-10-31T07:38:06;19.77;;;11.03;;
24859;SDS011;12936;52.006;4.350;2022-10-31T07:40:34;18.73;;;11.30;;
24859;SDS011;12936;52.006;4.350;2022-10-31T07:43:03;17.30;;;11.63;;
24859;SDS011;12936;52.006;4.350;2022-10-31T07:45:39;14.73;;;11.27;;
24859;SDS011;12936;52.006;4.350;2022-10-31T07:48:07;20.13;;;11.97;;
24859;SDS011;12936;52.006;4.350;2022-10-31T07:50:35;15.00;;;11.30;;
24859;SDS011;12936;52.006;4.350;2022-10-31T07:53:04;18.80;;;11.40;;
24859;SDS011;12936;52.006;4.350;2022-10-31T07:55:33;16.03;;;11.50;;
24859;SDS011;12936;52.006;4.350;2022-10-31T07:58:02;17.63;;;11.40;;
24859;SDS011;12936;52.006;4.350;2022-10-31T08:00:31;21.93;;;12.37;;
24859;SDS011;12936;52.006;4.350;2022-10-31T08:03:02;17.17;;;11.60;;
24859;SDS011;12936;52.006;4.350;2022-10-31T08:05:32;18.43;;;12.37;;
24859;SDS011;12936;52.006;4.350;2022-10-31T08:08:01;18.80;;;12.53;;
24859;SDS011;12936;52.006;4.350;2022-10-31T08:10:29;20.50;;;12.63;;
24859;SDS011;12936;52.006;4.350;2022-10-31T08:12:58;18.17;;;12.60;;
24859;SDS011;12936;52.006;4.350;2022-10-31T08:15:26;15.67;;;12.10;;
24859;SDS011;12936;52.006;4.350;2022-10-31T08:17:55;17.07;;;12.80;;
24859;SDS011;12936;52.006;4.350;2022-10-31T08:20:25;19.30;;;12.57;;
24859;SDS011;12936;52.006;4.350;2022-10-31T08:22:53;20.47;;;12.37;;
24859;SDS011;12936;52.006;4.350;2022-10-31T08:25:23;21.60;;;12.70;;
24859;SDS011;12936;52.006;4.350;2022-10-31T08:27:52;21.10;;;13.97;;
24859;SDS011;12936;52.006;4.350;2022-10-31T08:30:22;23.03;;;12.97;;
24859;SDS011;12936;52.006;4.350;2022-10-31T08:32:58;22.53;;;13.97;;
24859;SDS011;12936;52.006;4.350;2022-10-31T08:35:29;22.10;;;12.60;;
24859;SDS011;12936;52.006;4.350;2022-10-31T08:37:58;20.43;;;13.27;;
24859;SDS011;12936;52.006;4.350;2022-10-31T08:40:27;21.63;;;13.37;;
24859;SDS011;12936;52.006;4.350;2022-10-31T08:42:57;22.73;;;14.27;;
24859;SDS011;12936;52.006;4.350;2022-10-31T08:45:26;22.23;;;14.37;;
24859;SDS011;12936;52.006;4.350;2022-10-31T08:47:58;24.60;;;14.33;;
24859;SDS011;12936;52.006;4.350;2022-10-31T08:50:29;24.27;;;14.93;;
24859;SDS011;12936;52.006;4.350;2022-10-31T08:53:02;22.57;;;14.83;;
24859;SDS011;12936;52.006;4.350;2022-10-31T08:55:32;25.07;;;14.33;;
24859;SDS011;12936;52.006;4.350;2022-10-31T08:58:01;23.57;;;13.67;;
24859;SDS011;12936;52.006;4.350;2022-10-31T09:00:30;24.80;;;14.47;;
24859;SDS011;12936;52.006;4.350;2022-10-31T09:03:00;27.10;;;14.17;;
24859;SDS011;12936;52.006;4.350;2022-10-31T09:05:31;27.33;;;15.10;;
24859;SDS011;12936;52.006;4.350;2022-10-31T09:08:00;26.27;;;15.03;;
24859;SDS011;12936;52.006;4.350;2022-10-31T09:10:30;25.00;;;14.90;;
24859;SDS011;12936;52.006;4.350;2022-10-31T09:12:59;23.40;;;14.23;;
24859;SDS011;12936;52.006;4.350;2022-10-31T09:15:30;25.10;;;14.43;;
24859;SDS011;12936;52.006;4.350;2022-10-31T09:17:58;23.35;;;14.25;;
24859;SDS011;12936;52.006;4.350;2022-10-31T09:20:27;28.80;;;15.00;;
24859;SDS011;12936;52.006;4.350;2022-10-31T09:22:57;29.20;;;15.30;;
24859;SDS011;12936;52.006;4.350;2022-10-31T09:25:26;29.03;;;15.10;;
24859;SDS011;12936;52.006;4.350;2022-10-31T09:27:55;22.83;;;14.33;;
24859;SDS011;12936;52.006;4.350;2022-10-31T09:30:25;25.88;;;13.30;;
24859;SDS011;12936;52.006;4.350;2022-10-31T09:32:55;20.50;;;13.57;;
24859;SDS011;12936;52.006;4.350;2022-10-31T09:35:24;22.73;;;12.93;;
24859;SDS011;12936;52.006;4.350;2022-10-31T09:37:57;25.00;;;13.00;;
24859;SDS011;12936;52.006;4.350;2022-10-31T09:40:32;20.20;;;12.60;;
24859;SDS011;12936;52.006;4.350;2022-10-31T09:43:05;17.90;;;11.50;;
24859;SDS011;12936;52.006;4.350;2022-10-31T09:45:41;18.20;;;11.90;;
24859;SDS011;12936;52.006;4.350;2022-10-31T09:48:24;19.83;;;11.80;;
24859;SDS011;12936;52.006;4.350;2022-10-31T09:51:03;20.00;;;11.37;;
24859;SDS011;12936;52.006;4.350;2022-10-31T09:53:37;17.35;;;10.82;;
24859;SDS011;12936;52.006;4.350;2022-10-31T09:56:08;17.47;;;10.43;;
24859;SDS011;12936;52.006;4.350;2022-10-31T09:58:41;21.17;;;11.33;;
24859;SDS011;12936;52.006;4.350;2022-10-31T10:01:16;18.57;;;10.57;;
24859;SDS011;12936;52.006;4.350;2022-10-31T10:03:54;15.73;;;9.90;;
24859;SDS011;12936;52.006;4.350;2022-10-31T10:06:25;16.55;;;11.00;;
24859;SDS011;12936;52.006;4.350;2022-10-31T10:08:59;19.23;;;10.73;;
24859;SDS011;12936;52.006;4.350;2022-10-31T10:11:32;18.80;;;10.33;;
24859;SDS011;12936;52.006;4.350;2022-10-31T10:14:15;19.77;;;10.32;;
24859;SDS011;12936;52.006;4.350;2022-10-31T10:17:06;16.90;;;10.00;;
24859;SDS011;12936;52.006;4.350;2022-10-31T10:19:59;15.68;;;10.23;;
24859;SDS011;12936;52.006;4.350;2022-10-31T10:22:41;19.60;;;10.57;;
24859;SDS011;12936;52.006;4.350;2022-10-31T10:25:16;16.63;;;10.50;;
24859;SDS011;12936;52.006;4.350;2022-10-31T10:27:49;17.20;;;10.07;;
24859;SDS011;12936;52.006;4.350;2022-10-31T10:30:30;18.53;;;10.67;;
24859;SDS011;12936;52.006;4.350;2022-10-31T10:33:04;17.00;;;10.23;;
24859;SDS011;12936;52.006;4.350;2022-10-31T10:35:38;17.25;;;9.45;;
24859;SDS011;12936;52.006;4.350;2022-10-31T10:38:11;18.92;;;10.18;;
24859;SDS011;12936;52.006;4.350;2022-10-31T10:40:48;15.35;;;9.02;;
24859;SDS011;12936;52.006;4.350;2022-10-31T10:43:23;22.75;;;10.07;;
24859;SDS011;12936;52.006;4.350;2022-10-31T10:45:57;14.63;;;9.05;;
24859;SDS011;12936;52.006;4.350;2022-10-31T10:48:52;18.65;;;8.80;;
24859;SDS011;12936;52.006;4.350;2022-10-31T10:51:27;12.43;;;9.13;;
24859;SDS011;12936;52.006;4.350;2022-10-31T10:54:33;18.38;;;9.45;;
24859;SDS011;12936;52.006;4.350;2022-10-31T10:57:18;17.23;;;9.57;;
24859;SDS011;12936;52.006;4.350;2022-10-31T10:59:51;14.63;;;8.90;;
24859;SDS011;12936;52.006;4.350;2022-10-31T11:02:22;15.50;;;8.98;;
24859;SDS011;12936;52.006;4.350;2022-10-31T11:04:52;17.13;;;9.15;;
24859;SDS011;12936;52.006;4.350;2022-10-31T11:07:21;16.27;;;9.07;;
24859;SDS011;12936;52.006;4.350;2022-10-31T11:10:01;17.55;;;8.43;;
24859;SDS011;12936;52.006;4.350;2022-10-31T11:12:32;16.17;;;8.95;;
24859;SDS011;12936;52.006;4.350;2022-10-31T11:15:02;17.25;;;8.32;;
24859;SDS011;12936;52.006;4.350;2022-10-31T11:17:36;18.58;;;7.57;;
24859;SDS011;12936;52.006;4.350;2022-10-31T11:20:24;12.13;;;6.82;;
24859;SDS011;12936;52.006;4.350;2022-10-31T11:23:01;13.45;;;7.50;;
24859;SDS011;12936;52.006;4.350;2022-10-31T11:25:32;14.73;;;7.75;;
24859;SDS011;12936;52.006;4.350;2022-10-31T11:28:02;18.17;;;8.65;;
24859;SDS011;12936;52.006;4.350;2022-10-31T11:30:35;18.35;;;10.45;;
24859;SDS011;12936;52.006;4.350;2022-10-31T11:33:12;19.83;;;10.45;;
24859;SDS011;12936;52.006;4.350;2022-10-31T11:35:44;17.30;;;11.35;;
24859;SDS011;12936;52.006;4.350;2022-10-31T11:38:19;21.42;;;12.07;;
24859;SDS011;12936;52.006;4.350;2022-10-31T11:40:53;27.40;;;13.98;;
24859;SDS011;12936;52.006;4.350;2022-10-31T11:43:24;27.52;;;14.82;;
24859;SDS011;12936;52.006;4.350;2022-10-31T11:45:53;28.88;;;15.75;;
24859;SDS011;12936;52.006;4.350;2022-10-31T11:48:22;30.08;;;17.25;;
24859;SDS011;12936;52.006;4.350;2022-10-31T11:50:52;29.55;;;18.77;;
24859;SDS011;12936;52.006;4.350;2022-10-31T11:53:25;35.10;;;19.50;;
24859;SDS011;12936;52.006;4.350;2022-10-31T11:56:05;36.88;;;19.63;;
24859;SDS011;12936;52.006;4.350;2022-10-31T11:58:54;36.75;;;19.40;;
24859;SDS011;12936;52.006;4.350;2022-10-31T12:01:24;30.80;;;20.77;;
24859;SDS011;12936;52.006;4.350;2022-10-31T12:03:54;31.00;;;19.80;;
24859;SDS011;12936;52.006;4.350;2022-10-31T12:06:30;34.38;;;20.20;;
24859;SDS011;12936;52.006;4.350;2022-10-31T12:09:01;33.33;;;20.58;;
24859;SDS011;12936;52.006;4.350;2022-10-31T12:11:39;29.60;;;19.67;;
24859;SDS011;12936;52.006;4.350;2022-10-31T12:14:18;31.10;;;19.88;;
24859;SDS011;12936;52.006;4.350;2022-10-31T12:16:55;32.88;;;19.13;;
24859;SDS011;12936;52.006;4.350;2022-10-31T12:19:33;40.88;;;20.75;;
24859;SDS011;12936;52.006;4.350;2022-10-31T12:22:18;36.00;;;21.30;;
24859;SDS011;12936;52.006;4.350;2022-10-31T12:24:56;33.13;;;20.08;;
24859;SDS011;12936;52.006;4.350;2022-10-31T12:27:35;35.28;;;19.60;;
24859;SDS011;12936;52.006;4.350;2022-10-31T12:30:17;37.00;;;19.98;;
24859;SDS011;12936;52.006;4.350;2022-10-31T12:33:05;39.67;;;21.80;;
24859;SDS011;12936;52.006;4.350;2022-10-31T12:35:51;37.80;;;21.00;;
24859;SDS011;12936;52.006;4.350;2022-10-31T12:38:44;29.60;;;19.88;;
24859;SDS011;12936;52.006;4.350;2022-10-31T12:41:44;40.13;;;20.45;;
24859;SDS011;12936;52.006;4.350;2022-10-31T12:44:21;36.97;;;20.67;;
24859;SDS011;12936;52.006;4.350;2022-10-31T12:47:16;41.40;;;21.10;;
24859;SDS011;12936;52.006;4.350;2022-10-31T12:49:58;37.20;;;19.95;;
24859;SDS011;12936;52.006;4.350;2022-10-31T12:52:42;42.97;;;20.88;;
24859;SDS011;12936;52.006;4.350;2022-10-31T12:58:13;33.85;;;18.88;;
24859;SDS011;12936;52.006;4.350;2022-10-31T13:00:46;34.47;;;19.20;;
24859;SDS011;12936;52.006;4.350;2022-10-31T13:03:23;33.90;;;19.10;;
24859;SDS011;12936;52.006;4.350;2022-10-31T13:05:56;28.80;;;18.52;;
24859;SDS011;12936;52.006;4.350;2022-10-31T13:08:30;38.25;;;18.55;;
24859;SDS011;12936;52.006;4.350;2022-10-31T13:11:05;34.05;;;19.98;;
24859;SDS011;12936;52.006;4.350;2022-10-31T13:13:37;34.60;;;19.77;;
24859;SDS011;12936;52.006;4.350;2022-10-31T13:16:10;38.22;;;20.17;;
24859;SDS011;12936;52.006;4.350;2022-10-31T13:18:44;39.03;;;21.02;;
24859;SDS011;12936;52.006;4.350;2022-10-31T13:21:18;33.35;;;19.00;;
24859;SDS011;12936;52.006;4.350;2022-10-31T13:23:49;32.45;;;19.15;;
24859;SDS011;12936;52.006;4.350;2022-10-31T13:26:23;34.22;;;19.30;;
24859;SDS011;12936;52.006;4.350;2022-10-31T13:29:01;33.30;;;19.23;;
24859;SDS011;12936;52.006;4.350;2022-10-31T13:31:32;35.78;;;18.88;;
24859;SDS011;12936;52.006;4.350;2022-10-31T13:34:03;31.98;;;18.67;;
24859;SDS011;12936;52.006;4.350;2022-10-31T13:36:37;33.53;;;19.45;;
24859;SDS011;12936;52.006;4.350;2022-10-31T13:39:13;33.20;;;19.60;;
24859;SDS011;12936;52.006;4.350;2022-10-31T13:41:49;36.83;;;20.35;;
24859;SDS011;12936;52.006;4.350;2022-10-31T13:44:21;34.63;;;18.90;;
24859;SDS011;12936;52.006;4.350;2022-10-31T13:46:51;36.97;;;20.42;;
24859;SDS011;12936;52.006;4.350;2022-10-31T13:52:13;38.20;;;20.38;;
24859;SDS011;12936;52.006;4.350;2022-10-31T13:54:43;35.50;;;19.92;;
24859;SDS011;12936;52.006;4.350;2022-10-31T13:57:15;37.40;;;20.33;;
24859;SDS011;12936;52.006;4.350;2022-10-31T13:59:47;39.50;;;20.58;;
24859;SDS011;12936;52.006;4.350;2022-10-31T14:02:20;36.92;;;20.08;;
24859;SDS011;12936;52.006;4.350;2022-10-31T14:04:54;32.65;;;20.92;;
24859;SDS011;12936;52.006;4.350;2022-10-31T14:07:25;37.83;;;20.70;;
24859;SDS011;12936;52.006;4.350;2022-10-31T14:09:55;40.42;;;21.30;;
24859;SDS011;12936;52.006;4.350;2022-10-31T14:12:27;44.40;;;20.13;;
24859;SDS011;12936;52.006;4.350;2022-10-31T14:14:59;34.83;;;20.60;;
24859;SDS011;12936;52.006;4.350;2022-10-31T14:17:33;35.38;;;21.45;;
24859;SDS011;12936;52.006;4.350;2022-10-31T14:26:06;38.47;;;22.42;;
24859;SDS011;12936;52.006;4.350;2022-10-31T14:28:44;38.15;;;23.27;;
24859;SDS011;12936;52.006;4.350;2022-10-31T14:31:26;38.15;;;22.55;;
24859;SDS011;12936;52.006;4.350;2022-10-31T14:34:17;39.25;;;22.70;;
24859;SDS011;12936;52.006;4.350;2022-10-31T14:40:05;40.85;;;24.17;;
24859;SDS011;12936;52.006;4.350;2022-10-31T14:42:49;38.35;;;22.67;;
24859;SDS011;12936;52.006;4.350;2022-10-31T14:45:35;42.53;;;25.17;;
24859;SDS011;12936;52.006;4.350;2022-10-31T14:48:17;44.88;;;25.13;;
24859;SDS011;12936;52.006;4.350;2022-10-31T14:51:09;42.88;;;24.50;;
24859;SDS011;12936;52.006;4.350;2022-10-31T14:53:43;39.90;;;23.67;;
24859;SDS011;12936;52.006;4.350;2022-10-31T14:56:19;41.65;;;24.52;;
24859;SDS011;12936;52.006;4.350;2022-10-31T14:58:50;42.13;;;24.27;;
24859;SDS011;12936;52.006;4.350;2022-10-31T15:01:21;39.95;;;25.27;;
24859;SDS011;12936;52.006;4.350;2022-10-31T15:03:51;35.95;;;23.38;;
24859;SDS011;12936;52.006;4.350;2022-10-31T15:06:41;35.20;;;23.25;;
24859;SDS011;12936;52.006;4.350;2022-10-31T15:09:21;40.28;;;23.80;;
24859;SDS011;12936;52.006;4.350;2022-10-31T15:11:52;42.50;;;25.52;;
24859;SDS011;12936;52.006;4.350;2022-10-31T15:14:21;43.95;;;25.83;;
24859;SDS011;12936;52.006;4.350;2022-10-31T15:16:51;45.30;;;25.23;;
24859;SDS011;12936;52.006;4.350;2022-10-31T15:19:21;43.92;;;25.88;;
24859;SDS011;12936;52.006;4.350;2022-10-31T15:21:54;41.55;;;25.67;;
24859;SDS011;12936;52.006;4.350;2022-10-31T15:24:32;45.33;;;25.98;;
24859;SDS011;12936;52.006;4.350;2022-10-31T15:27:04;43.13;;;26.15;;